Fortville, Indiana
Current Conditions -  °F | °C
As of 1:14 PM on Saturday 22 Nov 2014 (Local Time) from KMQJ Reporting Station
Broken Clouds Broken Clouds  
Wind Chill: 50°   Ceiling: 6000
Heat Index: 50°   Visibility: 10mi
Dew Point: 37°   Wind: 10mph
Humidity: 62%   Direction: 180°S
Pressure: 30.09"   Gusts: NA
Location:  39.93°N, 85.85°W
Report Text: KMQJ 221814Z AUTO 18009KT 10SM SCT003 SCT008 BKN060 10/03 A3009 RMK AO1
Loading
Personal Weather Stations






























Interactive Weather Map New forecast layout! Learn more

10-Day Weather Forecast

Advertisements
Track Severe Weather on mobile